sensor_id;sensor_type;location;lat;lon;timestamp;temperature;humidity
12289;DHT22;6207;49.308;7.336;2022-07-29T00:02:26;18.20;99.90
12289;DHT22;6207;49.308;7.336;2022-07-29T00:04:53;18.20;99.90
12289;DHT22;6207;49.308;7.336;2022-07-29T00:07:20;18.40;99.90
12289;DHT22;6207;49.308;7.336;2022-07-29T00:09:47;18.10;99.90
12289;DHT22;6207;49.308;7.336;2022-07-29T00:12:19;18.10;99.90
12289;DHT22;6207;49.308;7.336;2022-07-29T00:14:54;18.00;99.90
12289;DHT22;6207;49.308;7.336;2022-07-29T00:17:22;17.90;99.90
12289;DHT22;6207;49.308;7.336;2022-07-29T00:19:49;17.80;99.90
12289;DHT22;6207;49.308;7.336;2022-07-29T00:22:16;18.00;99.90
12289;DHT22;6207;49.308;7.336;2022-07-29T00:24:43;17.80;99.90
12289;DHT22;6207;49.308;7.336;2022-07-29T00:27:10;17.70;99.90
12289;DHT22;6207;49.308;7.336;2022-07-29T00:29:38;17.80;99.90
12289;DHT22;6207;49.308;7.336;2022-07-29T00:32:05;17.80;99.90
12289;DHT22;6207;49.308;7.336;2022-07-29T00:34:32;17.50;99.90
12289;DHT22;6207;49.308;7.336;2022-07-29T00:37:17;17.50;99.90
12289;DHT22;6207;49.308;7.336;2022-07-29T00:39:44;17.40;99.90
12289;DHT22;6207;49.308;7.336;2022-07-29T00:42:10;17.30;99.90
12289;DHT22;6207;49.308;7.336;2022-07-29T00:44:41;17.30;99.90
12289;DHT22;6207;49.308;7.336;2022-07-29T00:47:10;17.30;99.90
12289;DHT22;6207;49.308;7.336;2022-07-29T00:49:39;17.20;99.90
12289;DHT22;6207;49.308;7.336;2022-07-29T00:52:07;17.10;99.90
12289;DHT22;6207;49.308;7.336;2022-07-29T00:54:35;17.10;99.90
12289;DHT22;6207;49.308;7.336;2022-07-29T00:57:10;17.00;99.90
12289;DHT22;6207;49.308;7.336;2022-07-29T00:59:37;17.00;99.90
12289;DHT22;6207;49.308;7.336;2022-07-29T01:02:04;16.90;99.90
12289;DHT22;6207;49.308;7.336;2022-07-29T01:04:32;16.90;99.90
12289;DHT22;6207;49.308;7.336;2022-07-29T01:07:02;16.90;99.90
12289;DHT22;6207;49.308;7.336;2022-07-29T01:09:31;16.80;99.90
12289;DHT22;6207;49.308;7.336;2022-07-29T01:12:18;16.80;99.90
12289;DHT22;6207;49.308;7.336;2022-07-29T01:14:46;16.80;99.90
12289;DHT22;6207;49.308;7.336;2022-07-29T01:20:13;16.70;99.90
12289;DHT22;6207;49.308;7.336;2022-07-29T01:31:11;16.50;99.90
12289;DHT22;6207;49.308;7.336;2022-07-29T01:33:58;16.40;99.90
12289;DHT22;6207;49.308;7.336;2022-07-29T01:36:43;16.30;99.90
12289;DHT22;6207;49.308;7.336;2022-07-29T01:39:27;16.40;99.90
12289;DHT22;6207;49.308;7.336;2022-07-29T01:42:01;16.20;99.90
12289;DHT22;6207;49.308;7.336;2022-07-29T01:44:35;16.20;99.90
12289;DHT22;6207;49.308;7.336;2022-07-29T01:47:17;16.20;99.90
12289;DHT22;6207;49.308;7.336;2022-07-29T01:49:52;16.10;99.90
12289;DHT22;6207;49.308;7.336;2022-07-29T01:52:36;16.10;99.90
12289;DHT22;6207;49.308;7.336;2022-07-29T01:55:15;16.10;99.90
12289;DHT22;6207;49.308;7.336;2022-07-29T01:57:45;16.00;99.90
12289;DHT22;6207;49.308;7.336;2022-07-29T02:00:14;16.20;99.90
12289;DHT22;6207;49.308;7.336;2022-07-29T02:02:43;16.00;99.90
12289;DHT22;6207;49.308;7.336;2022-07-29T02:05:12;16.00;99.90
12289;DHT22;6207;49.308;7.336;2022-07-29T02:07:42;15.90;99.90
12289;DHT22;6207;49.308;7.336;2022-07-29T02:10:11;15.90;99.90
12289;DHT22;6207;49.308;7.336;2022-07-29T02:12:39;15.90;99.90
12289;DHT22;6207;49.308;7.336;2022-07-29T02:15:07;15.80;99.90
12289;DHT22;6207;49.308;7.336;2022-07-29T02:17:43;15.70;99.90
12289;DHT22;6207;49.308;7.336;2022-07-29T02:20:12;15.90;99.90
12289;DHT22;6207;49.308;7.336;2022-07-29T02:22:39;15.70;99.90
12289;DHT22;6207;49.308;7.336;2022-07-29T02:25:08;15.70;99.90
12289;DHT22;6207;49.308;7.336;2022-07-29T02:27:40;15.70;99.90
12289;DHT22;6207;49.308;7.336;2022-07-29T02:30:08;15.50;99.90
12289;DHT22;6207;49.308;7.336;2022-07-29T02:32:37;15.70;99.90
12289;DHT22;6207;49.308;7.336;2022-07-29T02:35:08;15.60;99.90
12289;DHT22;6207;49.308;7.336;2022-07-29T02:37:36;15.70;99.90
12289;DHT22;6207;49.308;7.336;2022-07-29T02:40:04;15.60;99.90
12289;DHT22;6207;49.308;7.336;2022-07-29T02:42:33;15.60;99.90
12289;DHT22;6207;49.308;7.336;2022-07-29T02:45:03;15.50;99.90
12289;DHT22;6207;49.308;7.336;2022-07-29T02:47:44;15.50;99.90
12289;DHT22;6207;49.308;7.336;2022-07-29T02:50:23;15.50;99.90
12289;DHT22;6207;49.308;7.336;2022-07-29T02:53:15;15.50;99.90
12289;DHT22;6207;49.308;7.336;2022-07-29T02:55:48;15.50;99.90
12289;DHT22;6207;49.308;7.336;2022-07-29T02:58:27;15.50;99.90
12289;DHT22;6207;49.308;7.336;2022-07-29T03:01:11;15.40;99.90
12289;DHT22;6207;49.308;7.336;2022-07-29T03:03:46;15.40;99.90
12289;DHT22;6207;49.308;7.336;2022-07-29T03:06:15;15.40;99.90
12289;DHT22;6207;49.308;7.336;2022-07-29T03:09:03;15.30;99.90
12289;DHT22;6207;49.308;7.336;2022-07-29T03:11:38;15.30;99.90
12289;DHT22;6207;49.308;7.336;2022-07-29T03:14:17;15.40;99.90
12289;DHT22;6207;49.308;7.336;2022-07-29T03:16:46;15.30;99.90
12289;DHT22;6207;49.308;7.336;2022-07-29T03:19:14;15.20;99.90
12289;DHT22;6207;49.308;7.336;2022-07-29T03:21:41;15.20;99.90
12289;DHT22;6207;49.308;7.336;2022-07-29T03:24:08;15.20;99.90
12289;DHT22;6207;49.308;7.336;2022-07-29T03:26:37;15.20;99.90
12289;DHT22;6207;49.308;7.336;2022-07-29T03:29:04;15.10;99.90
12289;DHT22;6207;49.308;7.336;2022-07-29T03:31:32;15.10;99.90
12289;DHT22;6207;49.308;7.336;2022-07-29T03:33:59;15.10;99.90
12289;DHT22;6207;49.308;7.336;2022-07-29T03:36:26;15.10;99.90
12289;DHT22;6207;49.308;7.336;2022-07-29T03:38:53;15.10;99.90
12289;DHT22;6207;49.308;7.336;2022-07-29T03:41:22;15.10;99.90
12289;DHT22;6207;49.308;7.336;2022-07-29T03:43:49;15.10;99.90
12289;DHT22;6207;49.308;7.336;2022-07-29T03:46:21;15.10;99.90
12289;DHT22;6207;49.308;7.336;2022-07-29T03:48:50;15.10;99.90
12289;DHT22;6207;49.308;7.336;2022-07-29T03:51:19;15.10;99.90
12289;DHT22;6207;49.308;7.336;2022-07-29T03:54:01;15.00;99.90
12289;DHT22;6207;49.308;7.336;2022-07-29T03:56:38;15.00;99.90
12289;DHT22;6207;49.308;7.336;2022-07-29T03:59:07;15.10;99.90
12289;DHT22;6207;49.308;7.336;2022-07-29T04:01:34;15.30;99.90
12289;DHT22;6207;49.308;7.336;2022-07-29T04:04:02;15.20;99.90
12289;DHT22;6207;49.308;7.336;2022-07-29T04:06:41;15.20;99.90
12289;DHT22;6207;49.308;7.336;2022-07-29T04:09:09;15.10;99.90
12289;DHT22;6207;49.308;7.336;2022-07-29T04:11:36;15.20;99.90
12289;DHT22;6207;49.308;7.336;2022-07-29T04:14:24;15.30;99.90
12289;DHT22;6207;49.308;7.336;2022-07-29T04:16:51;15.30;99.90
12289;DHT22;6207;49.308;7.336;2022-07-29T04:19:17;15.20;99.90
12289;DHT22;6207;49.308;7.336;2022-07-29T04:21:44;15.10;99.90
12289;DHT22;6207;49.308;7.336;2022-07-29T04:24:11;15.10;99.90
12289;DHT22;6207;49.308;7.336;2022-07-29T04:26:38;15.10;99.90
12289;DHT22;6207;49.308;7.336;2022-07-29T04:29:05;15.10;99.90
12289;DHT22;6207;49.308;7.336;2022-07-29T04:31:32;15.20;99.90
12289;DHT22;6207;49.308;7.336;2022-07-29T04:33:59;15.10;99.90
12289;DHT22;6207;49.308;7.336;2022-07-29T04:36:25;15.10;99.90
12289;DHT22;6207;49.308;7.336;2022-07-29T04:38:55;15.10;99.90
12289;DHT22;6207;49.308;7.336;2022-07-29T04:41:22;15.20;99.90
12289;DHT22;6207;49.308;7.336;2022-07-29T04:43:58;15.20;99.90
12289;DHT22;6207;49.308;7.336;2022-07-29T04:46:27;15.20;99.90
12289;DHT22;6207;49.308;7.336;2022-07-29T04:48:54;15.20;99.90
12289;DHT22;6207;49.308;7.336;2022-07-29T04:51:21;15.20;99.90
12289;DHT22;6207;49.308;7.336;2022-07-29T04:53:48;15.40;99.90
12289;DHT22;6207;49.308;7.336;2022-07-29T04:56:15;15.30;99.90
12289;DHT22;6207;49.308;7.336;2022-07-29T04:58:41;15.40;99.90
12289;DHT22;6207;49.308;7.336;2022-07-29T05:01:08;15.40;99.90
12289;DHT22;6207;49.308;7.336;2022-07-29T05:03:35;15.50;99.90
12289;DHT22;6207;49.308;7.336;2022-07-29T05:06:02;15.60;99.90
12289;DHT22;6207;49.308;7.336;2022-07-29T05:08:29;15.80;99.90
12289;DHT22;6207;49.308;7.336;2022-07-29T05:10:56;16.00;99.90
12289;DHT22;6207;49.308;7.336;2022-07-29T05:13:23;16.30;99.90
12289;DHT22;6207;49.308;7.336;2022-07-29T05:15:50;17.00;99.90
12289;DHT22;6207;49.308;7.336;2022-07-29T05:18:16;17.70;99.90
12289;DHT22;6207;49.308;7.336;2022-07-29T05:20:43;18.00;99.90
12289;DHT22;6207;49.308;7.336;2022-07-29T05:23:10;18.00;99.90
12289;DHT22;6207;49.308;7.336;2022-07-29T05:25:39;17.60;99.90
12289;DHT22;6207;49.308;7.336;2022-07-29T05:28:11;17.90;99.90
12289;DHT22;6207;49.308;7.336;2022-07-29T05:30:37;18.00;99.90
12289;DHT22;6207;49.308;7.336;2022-07-29T05:33:04;18.40;99.90
12289;DHT22;6207;49.308;7.336;2022-07-29T05:35:31;18.50;99.90
12289;DHT22;6207;49.308;7.336;2022-07-29T05:37:58;18.90;99.90
12289;DHT22;6207;49.308;7.336;2022-07-29T05:40:25;19.00;99.90
12289;DHT22;6207;49.308;7.336;2022-07-29T05:42:51;18.90;99.90
12289;DHT22;6207;49.308;7.336;2022-07-29T05:45:18;18.50;99.90
12289;DHT22;6207;49.308;7.336;2022-07-29T05:47:45;18.50;99.90
12289;DHT22;6207;49.308;7.336;2022-07-29T05:50:12;18.70;99.90
12289;DHT22;6207;49.308;7.336;2022-07-29T05:52:38;19.70;99.90
12289;DHT22;6207;49.308;7.336;2022-07-29T05:55:05;20.60;99.90
12289;DHT22;6207;49.308;7.336;2022-07-29T05:57:32;21.50;99.90
12289;DHT22;6207;49.308;7.336;2022-07-29T05:59:59;22.50;99.90
12289;DHT22;6207;49.308;7.336;2022-07-29T06:02:26;22.80;99.90
12289;DHT22;6207;49.308;7.336;2022-07-29T06:04:52;24.00;99.90
12289;DHT22;6207;49.308;7.336;2022-07-29T06:07:20;23.90;99.90
12289;DHT22;6207;49.308;7.336;2022-07-29T06:09:47;23.40;99.90
12289;DHT22;6207;49.308;7.336;2022-07-29T06:12:13;23.40;99.90
12289;DHT22;6207;49.308;7.336;2022-07-29T06:14:41;23.60;99.90
12289;DHT22;6207;49.308;7.336;2022-07-29T06:17:07;23.30;99.90
12289;DHT22;6207;49.308;7.336;2022-07-29T06:19:35;22.60;99.90
12289;DHT22;6207;49.308;7.336;2022-07-29T06:22:03;24.60;99.90
12289;DHT22;6207;49.308;7.336;2022-07-29T06:24:30;23.90;99.90
12289;DHT22;6207;49.308;7.336;2022-07-29T06:26:57;22.50;99.90
12289;DHT22;6207;49.308;7.336;2022-07-29T06:29:24;23.80;99.90
12289;DHT22;6207;49.308;7.336;2022-07-29T06:31:50;23.10;99.90
12289;DHT22;6207;49.308;7.336;2022-07-29T06:34:17;22.90;99.90
12289;DHT22;6207;49.308;7.336;2022-07-29T06:36:46;21.90;99.90
12289;DHT22;6207;49.308;7.336;2022-07-29T06:39:14;20.70;99.90
12289;DHT22;6207;49.308;7.336;2022-07-29T06:41:41;20.20;99.90
12289;DHT22;6207;49.308;7.336;2022-07-29T06:44:08;19.70;99.90
12289;DHT22;6207;49.308;7.336;2022-07-29T06:46:35;19.40;99.90
12289;DHT22;6207;49.308;7.336;2022-07-29T06:49:03;19.50;99.90
12289;DHT22;6207;49.308;7.336;2022-07-29T06:51:30;21.40;99.90
12289;DHT22;6207;49.308;7.336;2022-07-29T06:53:57;22.30;99.90
12289;DHT22;6207;49.308;7.336;2022-07-29T06:56:30;23.40;99.90
12289;DHT22;6207;49.308;7.336;2022-07-29T06:59:06;23.00;99.90
12289;DHT22;6207;49.308;7.336;2022-07-29T07:01:35;25.10;99.90
12289;DHT22;6207;49.308;7.336;2022-07-29T07:04:09;26.70;99.90
12289;DHT22;6207;49.308;7.336;2022-07-29T07:07:18;27.30;99.90
12289;DHT22;6207;49.308;7.336;2022-07-29T07:09:49;26.00;99.90
12289;DHT22;6207;49.308;7.336;2022-07-29T07:12:26;22.90;99.90
12289;DHT22;6207;49.308;7.336;2022-07-29T07:15:14;21.80;99.90
12289;DHT22;6207;49.308;7.336;2022-07-29T07:18:09;23.30;99.90
12289;DHT22;6207;49.308;7.336;2022-07-29T07:21:20;22.90;99.90
12289;DHT22;6207;49.308;7.336;2022-07-29T07:23:47;22.40;99.90
12289;DHT22;6207;49.308;7.336;2022-07-29T07:26:14;22.10;99.90
12289;DHT22;6207;49.308;7.336;2022-07-29T07:28:41;21.20;99.90
12289;DHT22;6207;49.308;7.336;2022-07-29T07:31:08;21.10;99.90
12289;DHT22;6207;49.308;7.336;2022-07-29T07:33:36;20.90;99.90
12289;DHT22;6207;49.308;7.336;2022-07-29T07:36:03;21.10;99.90
12289;DHT22;6207;49.308;7.336;2022-07-29T07:38:29;22.10;99.90
12289;DHT22;6207;49.308;7.336;2022-07-29T07:40:56;22.60;99.90
12289;DHT22;6207;49.308;7.336;2022-07-29T07:43:23;22.40;99.90
12289;DHT22;6207;49.308;7.336;2022-07-29T07:45:50;22.40;99.90
12289;DHT22;6207;49.308;7.336;2022-07-29T07:48:16;22.20;99.90
12289;DHT22;6207;49.308;7.336;2022-07-29T07:50:43;22.70;99.90
12289;DHT22;6207;49.308;7.336;2022-07-29T07:53:10;21.70;99.90
12289;DHT22;6207;49.308;7.336;2022-07-29T07:55:42;21.80;99.90
12289;DHT22;6207;49.308;7.336;2022-07-29T07:58:28;21.70;99.90
12289;DHT22;6207;49.308;7.336;2022-07-29T08:00:55;22.10;99.90
12289;DHT22;6207;49.308;7.336;2022-07-29T08:03:22;21.90;99.90
12289;DHT22;6207;49.308;7.336;2022-07-29T08:05:49;21.90;99.90
12289;DHT22;6207;49.308;7.336;2022-07-29T08:08:18;22.00;99.90
12289;DHT22;6207;49.308;7.336;2022-07-29T08:10:45;21.90;99.90
12289;DHT22;6207;49.308;7.336;2022-07-29T08:13:24;22.40;99.90
12289;DHT22;6207;49.308;7.336;2022-07-29T08:15:52;22.60;99.90
12289;DHT22;6207;49.308;7.336;2022-07-29T08:18:28;22.50;99.90
12289;DHT22;6207;49.308;7.336;2022-07-29T08:20:56;22.30;99.90
12289;DHT22;6207;49.308;7.336;2022-07-29T08:23:23;22.10;99.90
12289;DHT22;6207;49.308;7.336;2022-07-29T08:25:51;22.60;99.90
12289;DHT22;6207;49.308;7.336;2022-07-29T08:28:20;23.00;99.90
12289;DHT22;6207;49.308;7.336;2022-07-29T08:30:51;22.80;99.90
12289;DHT22;6207;49.308;7.336;2022-07-29T08:33:18;23.10;99.90
12289;DHT22;6207;49.308;7.336;2022-07-29T08:35:45;22.90;99.90
12289;DHT22;6207;49.308;7.336;2022-07-29T08:38:12;23.20;99.90
12289;DHT22;6207;49.308;7.336;2022-07-29T08:40:39;23.10;99.90
12289;DHT22;6207;49.308;7.336;2022-07-29T08:43:07;23.20;99.90
12289;DHT22;6207;49.308;7.336;2022-07-29T08:48:15;24.00;99.90
12289;DHT22;6207;49.308;7.336;2022-07-29T08:50:43;23.80;99.90
12289;DHT22;6207;49.308;7.336;2022-07-29T08:53:15;23.70;99.90
12289;DHT22;6207;49.308;7.336;2022-07-29T08:55:49;24.00;99.90
12289;DHT22;6207;49.308;7.336;2022-07-29T08:58:17;23.80;99.90
12289;DHT22;6207;49.308;7.336;2022-07-29T09:00:55;24.00;99.90
12289;DHT22;6207;49.308;7.336;2022-07-29T09:03:25;24.10;99.90
12289;DHT22;6207;49.308;7.336;2022-07-29T09:05:54;23.80;99.90
12289;DHT22;6207;49.308;7.336;2022-07-29T09:08:20;23.40;99.90
12289;DHT22;6207;49.308;7.336;2022-07-29T09:10:48;23.80;99.90
12289;DHT22;6207;49.308;7.336;2022-07-29T09:13:15;24.40;99.90
12289;DHT22;6207;49.308;7.336;2022-07-29T09:15:42;24.90;99.90
12289;DHT22;6207;49.308;7.336;2022-07-29T10:41:47;26.60;99.90
12289;DHT22;6207;49.308;7.336;2022-07-29T10:44:21;26.80;99.90
12289;DHT22;6207;49.308;7.336;2022-07-29T10:46:51;26.80;99.90
12289;DHT22;6207;49.308;7.336;2022-07-29T10:49:23;27.30;99.90
12289;DHT22;6207;49.308;7.336;2022-07-29T10:52:04;26.70;99.90
12289;DHT22;6207;49.308;7.336;2022-07-29T10:54:43;26.60;99.90
12289;DHT22;6207;49.308;7.336;2022-07-29T10:59:43;26.40;99.90
12289;DHT22;6207;49.308;7.336;2022-07-29T11:05:16;27.00;99.90
12289;DHT22;6207;49.308;7.336;2022-07-29T11:10:47;27.10;99.90
12289;DHT22;6207;49.308;7.336;2022-07-29T11:13:51;27.10;99.90
12289;DHT22;6207;49.308;7.336;2022-07-29T11:16:23;27.10;99.90
12289;DHT22;6207;49.308;7.336;2022-07-29T11:21:43;27.60;99.90
12289;DHT22;6207;49.308;7.336;2022-07-29T11:24:29;27.60;99.90
12289;DHT22;6207;49.308;7.336;2022-07-29T11:29:59;27.10;99.90
12289;DHT22;6207;49.308;7.336;2022-07-29T11:32:37;27.10;99.90
12289;DHT22;6207;49.308;7.336;2022-07-29T11:35:23;27.00;99.90
12289;DHT22;6207;49.308;7.336;2022-07-29T11:38:25;26.90;99.90
12289;DHT22;6207;49.308;7.336;2022-07-29T11:41:20;27.50;99.90
12289;DHT22;6207;49.308;7.336;2022-07-29T11:43:53;27.90;99.90
12289;DHT22;6207;49.308;7.336;2022-07-29T11:49:13;27.50;99.90
12289;DHT22;6207;49.308;7.336;2022-07-29T11:51:55;27.40;99.90
12289;DHT22;6207;49.308;7.336;2022-07-29T11:54:26;27.70;99.90
12289;DHT22;6207;49.308;7.336;2022-07-29T11:56:53;28.00;99.90
12289;DHT22;6207;49.308;7.336;2022-07-29T11:59:21;27.90;99.90
12289;DHT22;6207;49.308;7.336;2022-07-29T12:01:59;28.00;99.90
12289;DHT22;6207;49.308;7.336;2022-07-29T12:04:53;27.90;99.90
12289;DHT22;6207;49.308;7.336;2022-07-29T12:07:34;27.50;99.90
12289;DHT22;6207;49.308;7.336;2022-07-29T12:10:01;27.40;99.90
12289;DHT22;6207;49.308;7.336;2022-07-29T12:12:28;27.60;99.90
12289;DHT22;6207;49.308;7.336;2022-07-29T12:14:55;27.50;99.90
12289;DHT22;6207;49.308;7.336;2022-07-29T12:17:32;27.40;99.90
12289;DHT22;6207;49.308;7.336;2022-07-29T12:20:03;27.30;99.90
12289;DHT22;6207;49.308;7.336;2022-07-29T12:22:33;27.00;99.90
12289;DHT22;6207;49.308;7.336;2022-07-29T12:25:05;27.20;99.90
12289;DHT22;6207;49.308;7.336;2022-07-29T12:28:04;27.20;99.90
12289;DHT22;6207;49.308;7.336;2022-07-29T12:41:10;27.30;99.90
12289;DHT22;6207;49.308;7.336;2022-07-29T12:43:37;27.30;99.90
12289;DHT22;6207;49.308;7.336;2022-07-29T12:46:14;27.30;99.90
12289;DHT22;6207;49.308;7.336;2022-07-29T12:48:43;27.40;99.90
12289;DHT22;6207;49.308;7.336;2022-07-29T12:51:11;27.30;99.90
12289;DHT22;6207;49.308;7.336;2022-07-29T12:53:40;27.20;99.90
12289;DHT22;6207;49.308;7.336;2022-07-29T12:56:15;27.20;99.90
12289;DHT22;6207;49.308;7.336;2022-07-29T12:59:32;27.10;99.90
12289;DHT22;6207;49.308;7.336;2022-07-29T13:01:59;26.90;99.90
12289;DHT22;6207;49.308;7.336;2022-07-29T13:04:32;26.90;99.90
12289;DHT22;6207;49.308;7.336;2022-07-29T13:07:06;27.00;99.90
12289;DHT22;6207;49.308;7.336;2022-07-29T13:09:38;27.10;99.90
12289;DHT22;6207;49.308;7.336;2022-07-29T13:12:07;27.00;99.90
12289;DHT22;6207;49.308;7.336;2022-07-29T13:14:36;26.70;99.90
12289;DHT22;6207;49.308;7.336;2022-07-29T13:17:11;26.90;99.90
12289;DHT22;6207;49.308;7.336;2022-07-29T13:19:45;26.70;99.90
12289;DHT22;6207;49.308;7.336;2022-07-29T13:22:18;26.90;99.90
12289;DHT22;6207;49.308;7.336;2022-07-29T13:24:47;26.90;99.90
12289;DHT22;6207;49.308;7.336;2022-07-29T13:27:16;27.00;99.90
12289;DHT22;6207;49.308;7.336;2022-07-29T13:29:43;26.70;99.90
12289;DHT22;6207;49.308;7.336;2022-07-29T13:32:11;26.60;99.90
12289;DHT22;6207;49.308;7.336;2022-07-29T13:34:39;26.80;99.90
12289;DHT22;6207;49.308;7.336;2022-07-29T13:37:06;27.00;99.90
12289;DHT22;6207;49.308;7.336;2022-07-29T13:39:32;27.10;99.90
12289;DHT22;6207;49.308;7.336;2022-07-29T13:41:59;27.60;99.90
12289;DHT22;6207;49.308;7.336;2022-07-29T13:44:27;27.90;99.90
12289;DHT22;6207;49.308;7.336;2022-07-29T13:46:54;27.90;99.90
12289;DHT22;6207;49.308;7.336;2022-07-29T13:49:20;27.70;99.90
12289;DHT22;6207;49.308;7.336;2022-07-29T13:51:50;28.20;99.90
12289;DHT22;6207;49.308;7.336;2022-07-29T13:54:17;27.90;99.90
12289;DHT22;6207;49.308;7.336;2022-07-29T13:56:45;27.80;99.90
12289;DHT22;6207;49.308;7.336;2022-07-29T13:59:12;27.70;99.90
12289;DHT22;6207;49.308;7.336;2022-07-29T14:01:39;27.80;99.90
12289;DHT22;6207;49.308;7.336;2022-07-29T14:04:09;27.90;99.90
12289;DHT22;6207;49.308;7.336;2022-07-29T14:06:39;27.80;99.90
12289;DHT22;6207;49.308;7.336;2022-07-29T14:09:21;28.00;99.90
12289;DHT22;6207;49.308;7.336;2022-07-29T14:11:47;28.00;99.90
12289;DHT22;6207;49.308;7.336;2022-07-29T14:14:17;27.90;99.90
12289;DHT22;6207;49.308;7.336;2022-07-29T14:16:43;27.90;99.90
12289;DHT22;6207;49.308;7.336;2022-07-29T14:19:17;27.90;99.90
12289;DHT22;6207;49.308;7.336;2022-07-29T14:21:44;28.00;99.90
12289;DHT22;6207;49.308;7.336;2022-07-29T14:24:12;28.20;99.90
12289;DHT22;6207;49.308;7.336;2022-07-29T14:26:47;28.50;99.90
12289;DHT22;6207;49.308;7.336;2022-07-29T14:29:14;28.20;99.90
12289;DHT22;6207;49.308;7.336;2022-07-29T14:31:41;28.00;99.90
12289;DHT22;6207;49.308;7.336;2022-07-29T14:34:09;28.10;99.90
12289;DHT22;6207;49.308;7.336;2022-07-29T14:36:36;28.30;99.90
12289;DHT22;6207;49.308;7.336;2022-07-29T14:39:03;28.60;99.90
12289;DHT22;6207;49.308;7.336;2022-07-29T14:41:30;28.70;99.90
12289;DHT22;6207;49.308;7.336;2022-07-29T14:43:57;28.40;99.90
12289;DHT22;6207;49.308;7.336;2022-07-29T14:46:27;28.40;99.90
12289;DHT22;6207;49.308;7.336;2022-07-29T14:48:54;28.80;99.90
12289;DHT22;6207;49.308;7.336;2022-07-29T14:51:21;28.50;99.90
12289;DHT22;6207;49.308;7.336;2022-07-29T14:53:48;27.80;99.90
12289;DHT22;6207;49.308;7.336;2022-07-29T14:56:15;27.70;99.90
12289;DHT22;6207;49.308;7.336;2022-07-29T14:59:01;27.60;99.90
12289;DHT22;6207;49.308;7.336;2022-07-29T15:01:28;27.80;99.90
12289;DHT22;6207;49.308;7.336;2022-07-29T15:03:56;27.60;99.90
12289;DHT22;6207;49.308;7.336;2022-07-29T15:06:26;27.70;99.90
12289;DHT22;6207;49.308;7.336;2022-07-29T15:08:53;27.80;99.90
12289;DHT22;6207;49.308;7.336;2022-07-29T15:11:20;28.20;99.90
12289;DHT22;6207;49.308;7.336;2022-07-29T15:13:47;28.50;99.90
12289;DHT22;6207;49.308;7.336;2022-07-29T15:16:14;28.50;99.90
12289;DHT22;6207;49.308;7.336;2022-07-29T15:18:41;28.60;99.90
12289;DHT22;6207;49.308;7.336;2022-07-29T15:21:08;28.90;99.90
12289;DHT22;6207;49.308;7.336;2022-07-29T15:23:34;28.60;99.90
12289;DHT22;6207;49.308;7.336;2022-07-29T15:26:03;28.70;99.90
12289;DHT22;6207;49.308;7.336;2022-07-29T15:28:30;28.60;99.90
12289;DHT22;6207;49.308;7.336;2022-07-29T15:30:57;28.80;99.90
12289;DHT22;6207;49.308;7.336;2022-07-29T15:33:24;28.70;99.90
12289;DHT22;6207;49.308;7.336;2022-07-29T15:35:51;28.90;99.90
12289;DHT22;6207;49.308;7.336;2022-07-29T15:38:18;28.90;99.90
12289;DHT22;6207;49.308;7.336;2022-07-29T15:40:54;28.80;99.90
12289;DHT22;6207;49.308;7.336;2022-07-29T15:43:21;28.70;99.90
12289;DHT22;6207;49.308;7.336;2022-07-29T15:45:48;28.60;99.90
12289;DHT22;6207;49.308;7.336;2022-07-29T15:48:37;28.50;99.90
12289;DHT22;6207;49.308;7.336;2022-07-29T15:51:04;28.60;99.90
12289;DHT22;6207;49.308;7.336;2022-07-29T15:53:31;28.50;99.90
12289;DHT22;6207;49.308;7.336;2022-07-29T15:56:01;28.80;99.90
12289;DHT22;6207;49.308;7.336;2022-07-29T15:58:28;28.70;99.90
12289;DHT22;6207;49.308;7.336;2022-07-29T16:00:54;28.80;99.90
12289;DHT22;6207;49.308;7.336;2022-07-29T16:03:21;28.90;99.90
12289;DHT22;6207;49.308;7.336;2022-07-29T16:05:48;28.90;99.90
12289;DHT22;6207;49.308;7.336;2022-07-29T16:08:15;28.70;99.90
12289;DHT22;6207;49.308;7.336;2022-07-29T16:10:42;28.70;99.90
12289;DHT22;6207;49.308;7.336;2022-07-29T16:13:09;28.60;99.90
12289;DHT22;6207;49.308;7.336;2022-07-29T16:15:46;28.60;99.90
12289;DHT22;6207;49.308;7.336;2022-07-29T16:18:31;28.10;99.90
12289;DHT22;6207;49.308;7.336;2022-07-29T16:21:01;27.60;99.90
12289;DHT22;6207;49.308;7.336;2022-07-29T16:23:28;27.60;99.90
12289;DHT22;6207;49.308;7.336;2022-07-29T16:25:56;27.50;99.90
12289;DHT22;6207;49.308;7.336;2022-07-29T16:28:32;27.30;99.90
12289;DHT22;6207;49.308;7.336;2022-07-29T16:31:06;27.90;99.90
12289;DHT22;6207;49.308;7.336;2022-07-29T16:33:42;28.90;99.90
12289;DHT22;6207;49.308;7.336;2022-07-29T16:36:25;28.70;99.90
12289;DHT22;6207;49.308;7.336;2022-07-29T16:38:57;28.50;99.90
12289;DHT22;6207;49.308;7.336;2022-07-29T16:41:25;28.20;99.90
12289;DHT22;6207;49.308;7.336;2022-07-29T16:43:57;28.00;99.90
12289;DHT22;6207;49.308;7.336;2022-07-29T16:46:24;28.20;99.90
12289;DHT22;6207;49.308;7.336;2022-07-29T16:48:52;28.40;99.90
12289;DHT22;6207;49.308;7.336;2022-07-29T16:51:27;28.20;99.90
12289;DHT22;6207;49.308;7.336;2022-07-29T16:53:55;28.30;99.90
12289;DHT22;6207;49.308;7.336;2022-07-29T16:56:22;28.50;99.90
12289;DHT22;6207;49.308;7.336;2022-07-29T16:58:49;28.50;99.90
12289;DHT22;6207;49.308;7.336;2022-07-29T17:01:16;28.20;99.90
12289;DHT22;6207;49.308;7.336;2022-07-29T17:03:46;28.10;99.90
12289;DHT22;6207;49.308;7.336;2022-07-29T17:19:21;28.00;99.90
12289;DHT22;6207;49.308;7.336;2022-07-29T17:21:48;27.90;99.90
12289;DHT22;6207;49.308;7.336;2022-07-29T17:24:15;27.80;99.90
12289;DHT22;6207;49.308;7.336;2022-07-29T17:26:42;27.60;99.90
12289;DHT22;6207;49.308;7.336;2022-07-29T17:29:10;27.50;99.90
12289;DHT22;6207;49.308;7.336;2022-07-29T17:31:37;27.40;99.90
12289;DHT22;6207;49.308;7.336;2022-07-29T17:34:04;27.40;99.90
12289;DHT22;6207;49.308;7.336;2022-07-29T17:36:32;27.40;99.90
12289;DHT22;6207;49.308;7.336;2022-07-29T17:39:07;27.40;99.90
12289;DHT22;6207;49.308;7.336;2022-07-29T17:41:34;27.50;99.90
12289;DHT22;6207;49.308;7.336;2022-07-29T17:44:03;27.30;99.90
12289;DHT22;6207;49.308;7.336;2022-07-29T17:46:30;27.40;99.90
12289;DHT22;6207;49.308;7.336;2022-07-29T17:48:57;27.20;99.90
12289;DHT22;6207;49.308;7.336;2022-07-29T17:51:25;27.00;99.90
12289;DHT22;6207;49.308;7.336;2022-07-29T17:53:52;26.80;99.90
12289;DHT22;6207;49.308;7.336;2022-07-29T17:56:19;26.90;99.90
12289;DHT22;6207;49.308;7.336;2022-07-29T17:58:46;26.70;99.90
12289;DHT22;6207;49.308;7.336;2022-07-29T18:01:27;26.70;99.90
12289;DHT22;6207;49.308;7.336;2022-07-29T18:03:54;26.60;99.90
12289;DHT22;6207;49.308;7.336;2022-07-29T18:06:28;26.50;99.90
12289;DHT22;6207;49.308;7.336;2022-07-29T18:08:55;26.40;99.90
12289;DHT22;6207;49.308;7.336;2022-07-29T18:11:22;26.40;99.90
12289;DHT22;6207;49.308;7.336;2022-07-29T18:13:49;26.30;99.90
12289;DHT22;6207;49.308;7.336;2022-07-29T18:16:19;26.30;99.90
12289;DHT22;6207;49.308;7.336;2022-07-29T18:18:47;26.30;99.90
12289;DHT22;6207;49.308;7.336;2022-07-29T18:21:17;26.30;99.90
12289;DHT22;6207;49.308;7.336;2022-07-29T18:24:07;26.30;99.90
12289;DHT22;6207;49.308;7.336;2022-07-29T18:26:37;26.40;99.90